Huvudsida
METAR-TAF:

METAR-TAF

Flygplatser :

Toulouse, Frankrike

latitud: 43-38N, longitud: 001-22E, höjd: 152 m

Aktuellt väderrapport

Denna rapport gjordes för 39 minuter sedan, klockan 22:00 UTC
Vind 1 kt från sydväst
Temperatur 21°C
Fuktighet 69%
Tryck 1013 hPa
Sikt 10 km eller mer
Inga moln under 1 500 m eller inga cumulonimbus

METAR: LFBO 242200Z AUTO 23001KT CAVOK 21/15 Q1013 NOSIG

Tid: 00:39 (22:39 UTC)

Väderprognos

Denna rapport gjordes för 5 timmar och 39 minuter sedan, klockan 17:00 UTC
Prognos gäller från 24 kl. 18 UTC till 25 kl. 24 UTC
Vind 5 kt från nordväst
Sikt 10 km eller mer
Inga moln under 1 500 m eller inga cumulonimbus
Från 25 kl. 1100 UTC
Vind 8 kt från sydost
Sikt 10 km eller mer
Inga moln under 1 500 m eller inga cumulonimbus

TAF: LFBO 241700Z 2418/2524 32005KT CAVOK FM251100 14008KT CAVOK

Aktuella väderrapporter och prognoser från 4000 flygplatser (METAR- och TAF-rapporter).

De tillgängliga stationerna syns som gula och röda prickar på kartan.

För musen över prickarna för att se namnen på stationerna.

Klicka sedan för att få väderrapporter och prognoser.

För att ändra kartan: Klicka på de gröna knapparna med ett svart kors på för att zooma in; den gröna knappen med ett streck på för att zooma ut; eller på de gröna pilarna för angränsande kartor.


METAR-TAF: